Terminal Aerodrome Forecast
Issued by NWS

Home | Current Version | Previous Version | Graphics & Text | Print | Product List | Glossary On
Versions: 1 2 3 4 5 6 7 8 9 10 11 12 13 14 15 16 17 18
076
FTUS43 KPAH 300245 AAA
TAFCGI
TAF AMD
KCGI 300245Z 3003/3024 29003KT 5SM BR VCSH BKN024
     FM300500 33003KT P6SM SKC
     FM301030 32002KT 2SM BR BKN019 OVC030
      TEMPO 3011/3014 3/4SM BR OVC014
     FM301400 32005KT 5SM BR VCSH BKN014 OVC045
     FM301700 32006KT P6SM OVC030
      TEMPO 3021/3024 P6SM -DZ OVC025=

USA.gov is the U.S. government's official web portal to all federal, state and local government web resources and services.